Time;durP1;ratioP1;P1;durP2;ratioP2;P2;SDS_P1;SDS_P2;PMS_P1;PMS_P2;Temp;Humidity;BMP_temperature;BMP_pressure;BME280_temperature;BME280_humidity;BME280_pressure;Samples;Min_cycle;Max_cycle;Signal;HPM_P1;HPM_P2
2021/09/30 00:02:11;;;;;;;3.25;1.40;;;10.00;10.10;;;;;;5086036;28;20150;-69
2021/09/30 00:04:39;;;;;;;4.22;1.50;;;10.00;9.50;;;;;;5075294;28;20123;-70
2021/09/30 00:07:08;;;;;;;3.13;1.52;;;10.00;9.30;;;;;;5077432;28;20048;-70
2021/09/30 00:09:43;;;;;;;4.53;1.60;;;9.90;10.20;;;;;;5099696;28;20486;-70
2021/09/30 00:12:17;;;;;;;3.83;1.20;;;10.00;9.50;;;;;;5075581;28;20102;-69
2021/09/30 00:14:52;;;;;;;1.33;0.88;;;10.00;9.20;;;;;;5074512;28;20427;-69
2021/09/30 00:34:10;;;;;;;4.85;0.75;;;9.70;10.60;;;;;;5076835;28;20043;-70
2021/09/30 00:42:34;;;;;;;3.47;0.90;;;9.70;10.90;;;;;;5027914;28;20048;-69
2021/09/30 00:47:56;;;;;;;1.65;0.98;;;9.70;10.70;;;;;;5070776;28;20060;-70
2021/09/30 00:50:29;;;;;;;3.17;1.10;;;9.70;11.00;;;;;;5073877;28;20491;-70
2021/09/30 00:53:22;;;;;;;4.60;1.20;;;9.70;10.60;;;;;;5072449;28;20051;-71
2021/09/30 02:24:43;;;;;;;2.35;1.00;;;8.90;15.10;;;;;;5092007;28;20126;-70
2021/09/30 02:58:40;;;;;;;3.92;1.20;;;8.80;16.90;;;;;;5095438;28;20097;-69
2021/09/30 03:01:16;;;;;;;2.25;0.80;;;8.80;17.00;;;;;;5093168;28;20039;-69
2021/09/30 03:03:46;;;;;;;2.33;1.13;;;8.70;16.90;;;;;;5091202;28;20105;-70
2021/09/30 03:06:19;;;;;;;3.08;0.98;;;8.80;17.20;;;;;;5094302;28;20522;-70
2021/09/30 03:08:52;;;;;;;3.85;1.20;;;8.70;16.90;;;;;;5091149;28;20044;-69
2021/09/30 03:11:22;;;;;;;3.35;1.25;;;8.70;17.30;;;;;;5082477;28;20455;-69
2021/09/30 03:13:57;;;;;;;4.70;1.73;;;8.70;17.30;;;;;;5091463;28;20040;-69
2021/09/30 03:16:31;;;;;;;2.45;1.25;;;8.70;17.70;;;;;;5097558;28;20054;-70
2021/09/30 03:19:16;;;;;;;4.05;1.30;;;8.70;18.00;;;;;;5087388;28;20093;-70
2021/09/30 03:24:37;;;;;;;5.35;1.33;;;8.50;18.40;;;;;;5095593;28;20048;-69
2021/09/30 03:27:08;;;;;;;5.40;1.30;;;8.50;19.30;;;;;;5096126;28;20035;-69
2021/09/30 03:29:41;;;;;;;2.45;1.13;;;8.50;19.50;;;;;;5093828;28;20072;-70
2021/09/30 03:32:12;;;;;;;3.65;1.20;;;8.30;19.80;;;;;;5091406;28;20036;-69
2021/09/30 03:34:41;;;;;;;4.53;1.30;;;8.20;20.50;;;;;;5093986;28;20052;-69
2021/09/30 03:37:14;;;;;;;4.22;1.35;;;8.20;21.70;;;;;;5096029;28;20052;-69
2021/09/30 03:39:43;;;;;;;4.22;1.48;;;8.20;22.00;;;;;;5091216;28;20062;-69
2021/09/30 03:42:11;;;;;;;5.00;1.17;;;8.20;22.80;;;;;;5093733;28;20071;-69
2021/09/30 03:44:39;;;;;;;2.20;1.20;;;8.10;22.60;;;;;;5094750;28;20085;-69
2021/09/30 03:47:07;;;;;;;4.55;1.25;;;8.00;24.00;;;;;;5091726;28;20045;-69
2021/09/30 03:49:38;;;;;;;3.70;1.50;;;8.00;24.60;;;;;;5092525;28;20100;-69
2021/09/30 03:52:14;;;;;;;11.85;1.48;;;8.00;25.00;;;;;;5091027;28;20541;-69
2021/09/30 03:54:55;;;;;;;4.10;1.35;;;7.90;25.50;;;;;;5081720;28;20035;-69
2021/09/30 03:57:35;;;;;;;3.33;1.40;;;7.90;26.30;;;;;;5093437;28;20040;-69
2021/09/30 04:00:07;;;;;;;2.78;1.50;;;7.80;26.90;;;;;;5089049;28;20039;-69
2021/09/30 04:02:37;;;;;;;2.38;1.40;;;7.80;27.20;;;;;;5094636;28;20132;-69
2021/09/30 04:05:12;;;;;;;2.80;1.20;;;7.80;27.00;;;;;;5095016;28;20036;-70
2021/09/30 04:07:42;;;;;;;3.20;1.73;;;7.90;27.30;;;;;;5097091;28;20044;-70
2021/09/30 04:10:16;;;;;;;5.70;1.70;;;7.80;27.40;;;;;;5096250;28;20043;-68
2021/09/30 04:12:47;;;;;;;4.38;1.75;;;7.80;27.40;;;;;;5072008;28;20051;-70
2021/09/30 04:15:18;;;;;;;3.72;1.63;;;7.80;27.90;;;;;;5073817;28;20063;-70
2021/09/30 04:17:50;;;;;;;5.25;2.00;;;7.90;27.50;;;;;;5093102;28;20495;-70
2021/09/30 04:20:22;;;;;;;8.00;1.85;;;7.90;27.10;;;;;;5089092;28;20109;-70
2021/09/30 04:22:53;;;;;;;4.25;1.63;;;7.90;26.90;;;;;;5090690;28;20285;-68
2021/09/30 04:25:26;;;;;;;2.50;1.48;;;7.90;26.80;;;;;;5092260;28;20582;-69
2021/09/30 04:27:59;;;;;;;5.75;2.05;;;7.90;26.50;;;;;;5094918;28;20031;-69
2021/09/30 04:30:27;;;;;;;2.72;1.50;;;8.00;26.50;;;;;;5090403;28;20063;-69
2021/09/30 04:32:58;;;;;;;6.78;1.90;;;8.10;25.90;;;;;;5095394;28;20032;-69
2021/09/30 04:35:29;;;;;;;2.40;1.60;;;8.10;25.30;;;;;;5092775;28;20047;-69
2021/09/30 04:37:58;;;;;;;5.80;1.70;;;8.10;25.00;;;;;;5088978;28;20139;-69
2021/09/30 04:40:30;;;;;;;2.80;1.60;;;8.10;25.00;;;;;;5072801;28;20505;-70
2021/09/30 04:43:02;;;;;;;3.97;1.70;;;8.10;25.00;;;;;;5073894;28;20033;-69
2021/09/30 04:45:30;;;;;;;2.55;1.73;;;8.10;25.00;;;;;;5075960;28;20123;-69
2021/09/30 04:47:58;;;;;;;3.90;1.42;;;8.00;25.20;;;;;;5075766;28;20498;-68
2021/09/30 04:50:28;;;;;;;3.88;1.75;;;8.00;25.40;;;;;;5074650;28;20079;-69
2021/09/30 04:53:00;;;;;;;3.55;1.65;;;8.00;25.70;;;;;;5072690;28;20040;-69
2021/09/30 04:55:31;;;;;;;5.07;1.60;;;8.00;26.00;;;;;;5078739;28;20559;-69
2021/09/30 04:57:59;;;;;;;4.50;1.55;;;8.00;25.80;;;;;;5060615;28;20528;-69
2021/09/30 05:00:30;;;;;;;4.78;2.15;;;8.00;25.30;;;;;;5071936;28;20055;-69
2021/09/30 05:02:59;;;;;;;5.65;1.95;;;8.10;25.00;;;;;;5074510;28;20067;-69
2021/09/30 05:05:28;;;;;;;6.80;1.88;;;8.00;25.00;;;;;;5057384;28;20539;-69
2021/09/30 05:08:00;;;;;;;4.40;1.88;;;8.00;25.30;;;;;;5071167;28;20036;-69
2021/09/30 05:10:33;;;;;;;7.85;2.10;;;8.00;25.30;;;;;;5072484;28;20511;-69
2021/09/30 05:13:06;;;;;;;6.60;2.05;;;8.00;25.50;;;;;;5073221;28;20131;-69
2021/09/30 05:15:38;;;;;;;4.80;2.15;;;8.00;26.00;;;;;;5071868;28;20052;-70
2021/09/30 05:18:07;;;;;;;4.97;2.13;;;7.90;25.90;;;;;;5075589;28;20044;-70
2021/09/30 05:20:35;;;;;;;4.70;2.15;;;8.00;27.10;;;;;;5073492;28;20076;-69
2021/09/30 05:23:04;;;;;;;4.25;2.50;;;8.00;26.80;;;;;;5072399;28;20113;-68
2021/09/30 05:25:34;;;;;;;6.82;2.25;;;8.00;26.90;;;;;;5074164;28;20415;-70
2021/09/30 05:28:03;;;;;;;6.35;2.38;;;8.00;27.00;;;;;;5074952;28;20152;-69
2021/09/30 05:30:32;;;;;;;3.33;2.25;;;8.00;27.10;;;;;;5069174;28;20113;-69
2021/09/30 05:33:00;;;;;;;8.15;2.70;;;8.00;27.30;;;;;;5070965;28;20058;-71
2021/09/30 05:35:30;;;;;;;8.05;2.75;;;8.00;27.20;;;;;;5075813;28;20079;-69
2021/09/30 05:38:02;;;;;;;4.50;2.90;;;8.00;27.10;;;;;;5076710;28;20086;-69
2021/09/30 05:40:35;;;;;;;5.60;2.75;;;8.10;27.00;;;;;;5079804;28;20437;-70
2021/09/30 05:43:10;;;;;;;5.45;2.30;;;8.20;26.50;;;;;;5073663;28;20492;-69
2021/09/30 05:45:41;;;;;;;6.05;2.95;;;8.10;26.20;;;;;;5073769;28;20135;-69
2021/09/30 05:48:10;;;;;;;5.68;3.10;;;8.10;26.70;;;;;;5072470;28;20040;-69
2021/09/30 05:50:38;;;;;;;6.47;3.13;;;8.30;26.20;;;;;;5070525;28;20409;-69
2021/09/30 05:53:09;;;;;;;7.28;3.72;;;8.30;25.80;;;;;;5070866;28;20253;-69
2021/09/30 05:55:39;;;;;;;7.68;3.28;;;8.40;25.80;;;;;;5079650;28;20123;-70
2021/09/30 05:58:08;;;;;;;5.68;2.85;;;8.40;25.50;;;;;;5074729;28;20043;-69
2021/09/30 06:00:43;;;;;;;7.97;3.03;;;8.40;25.20;;;;;;5072511;28;20579;-69
2021/09/30 06:11:26;;;;;;;10.88;2.88;;;8.60;23.50;;;;;;5069463;28;20073;-69
2021/09/30 06:14:00;;;;;;;3.65;2.22;;;8.70;23.50;;;;;;5058846;28;20060;-70
2021/09/30 06:16:34;;;;;;;5.32;2.67;;;8.70;23.00;;;;;;5072785;28;20425;-70
2021/09/30 06:19:24;;;;;;;4.20;2.35;;;8.80;22.00;;;;;;5073048;28;20039;-69
2021/09/30 06:21:55;;;;;;;3.20;2.05;;;8.90;21.10;;;;;;5074446;28;20557;-69
2021/09/30 06:24:26;;;;;;;4.97;2.50;;;9.10;20.10;;;;;;5069519;28;20036;-69
2021/09/30 06:26:57;;;;;;;6.88;2.58;;;9.20;18.80;;;;;;5064370;28;20036;-69
2021/09/30 06:29:25;;;;;;;6.03;2.20;;;9.20;18.10;;;;;;5077731;28;20076;-69
2021/09/30 06:31:55;;;;;;;9.23;3.33;;;9.20;16.50;;;;;;5073986;28;20063;-69
2021/09/30 06:34:23;;;;;;;6.10;2.22;;;9.30;17.20;;;;;;5070830;28;20036;-67
2021/09/30 06:36:54;;;;;;;4.47;2.17;;;9.40;16.40;;;;;;5074247;28;20051;-69
2021/09/30 06:39:23;;;;;;;5.78;1.60;;;9.50;15.60;;;;;;5074710;28;20396;-69
2021/09/30 06:41:56;;;;;;;5.95;2.10;;;9.60;14.40;;;;;;5070557;28;20484;-68
2021/09/30 06:44:29;;;;;;;6.20;2.83;;;9.60;14.50;;;;;;5072238;28;20044;-69
2021/09/30 06:46:57;;;;;;;5.90;2.40;;;9.70;13.70;;;;;;5075260;28;20049;-69
2021/09/30 06:49:27;;;;;;;6.13;2.90;;;9.90;13.50;;;;;;5075023;28;20080;-69
2021/09/30 06:51:57;;;;;;;5.65;2.70;;;9.90;12.30;;;;;;5076863;28;20067;-69
2021/09/30 06:54:27;;;;;;;9.25;2.75;;;10.00;11.40;;;;;;5072209;28;20066;-69
2021/09/30 06:56:56;;;;;;;4.53;2.15;;;9.80;12.10;;;;;;5074203;28;20068;-69
2021/09/30 06:59:32;;;;;;;10.75;4.85;;;10.00;10.80;;;;;;5072607;28;20566;-69
2021/09/30 07:02:04;;;;;;;8.52;2.70;;;10.30;10.20;;;;;;5069849;28;20051;-70
2021/09/30 07:04:38;;;;;;;5.18;1.80;;;10.30;10.10;;;;;;5072693;28;20059;-69
2021/09/30 07:07:07;;;;;;;5.68;2.17;;;10.20;7.30;;;;;;5074198;28;20039;-69
2021/09/30 07:09:35;;;;;;;6.35;2.10;;;10.40;8.00;;;;;;5073963;28;20051;-69
2021/09/30 07:12:05;;;;;;;6.07;2.47;;;10.60;7.30;;;;;;5053043;28;20075;-69
2021/09/30 07:14:34;;;;;;;5.55;2.10;;;10.60;6.40;;;;;;5068455;28;20044;-69
2021/09/30 07:17:04;;;;;;;7.72;1.70;;;10.70;6.20;;;;;;5070665;28;20044;-68
2021/09/30 07:19:36;;;;;;;4.47;2.30;;;10.80;5.70;;;;;;5075734;28;20408;-67
2021/09/30 07:22:09;;;;;;;7.45;2.55;;;10.70;5.80;;;;;;5070433;28;20484;-68
2021/09/30 07:24:40;;;;;;;8.52;2.03;;;10.80;5.70;;;;;;5076470;28;20103;-68
2021/09/30 07:27:11;;;;;;;5.18;1.70;;;10.90;4.70;;;;;;5071511;28;20040;-68
2021/09/30 07:29:39;;;;;;;4.18;1.50;;;11.00;4.10;;;;;;5069416;28;20061;-67
2021/09/30 07:32:08;;;;;;;4.18;1.48;;;11.20;3.60;;;;;;5071038;28;20151;-69
2021/09/30 07:34:39;;;;;;;5.47;1.60;;;11.20;3.10;;;;;;5060973;28;20052;-69
2021/09/30 07:37:08;;;;;;;8.57;1.55;;;11.10;2.20;;;;;;5073049;28;20102;-67
2021/09/30 07:39:36;;;;;;;7.25;1.50;;;11.20;2.40;;;;;;5072617;28;20445;-68
2021/09/30 07:42:04;;;;;;;4.85;1.55;;;11.30;1.30;;;;;;5072740;28;20480;-68
2021/09/30 07:44:38;;;;;;;3.67;1.60;;;11.40;1.30;;;;;;5072755;28;20376;-67
2021/09/30 07:47:06;;;;;;;4.75;2.15;;;11.50;1.30;;;;;;5074137;28;20155;-67
2021/09/30 07:49:34;;;;;;;5.10;1.48;;;11.70;1.00;;;;;;5072984;28;20047;-68
2021/09/30 07:52:05;;;;;;;4.43;1.42;;;11.70;1.00;;;;;;5068061;28;20055;-70
2021/09/30 07:54:34;;;;;;;3.20;1.73;;;11.80;1.00;;;;;;5073021;28;20052;-68
2021/09/30 07:57:04;;;;;;;5.78;2.03;;;11.70;1.00;;;;;;5074345;28;20040;-68
2021/09/30 07:59:32;;;;;;;5.35;1.67;;;11.90;1.00;;;;;;5076378;28;20067;-69
2021/09/30 08:02:01;;;;;;;6.57;1.98;;;12.00;1.00;;;;;;5067659;28;20068;-69
2021/09/30 08:04:30;;;;;;;7.57;1.63;;;12.30;1.00;;;;;;5072126;28;20081;-69
2021/09/30 08:06:58;;;;;;;2.75;1.38;;;12.40;1.00;;;;;;5073752;28;20040;-68
2021/09/30 08:09:26;;;;;;;6.53;1.88;;;12.20;1.00;;;;;;5075028;28;20056;-68
2021/09/30 08:11:59;;;;;;;4.70;1.35;;;12.50;1.00;;;;;;5069545;28;20040;-69
2021/09/30 08:14:27;;;;;;;3.63;1.63;;;12.00;1.00;;;;;;5077962;28;20469;-68
2021/09/30 08:16:56;;;;;;;6.38;1.42;;;12.30;1.00;;;;;;5080070;28;20040;-68
2021/09/30 08:19:27;;;;;;;3.20;1.38;;;12.60;1.00;;;;;;5077461;28;20048;-69
2021/09/30 08:22:00;;;;;;;10.00;1.42;;;12.70;1.00;;;;;;5074551;28;20094;-68
2021/09/30 08:24:28;;;;;;;5.25;1.80;;;12.20;1.00;;;;;;5074972;28;20116;-68
2021/09/30 08:27:00;;;;;;;4.55;1.20;;;12.60;1.00;;;;;;5075857;28;20086;-68
2021/09/30 08:29:30;;;;;;;3.95;1.20;;;12.90;1.00;;;;;;5079480;28;20466;-68
2021/09/30 08:32:04;;;;;;;8.70;1.45;;;12.60;1.00;;;;;;5076066;28;20068;-68
2021/09/30 08:34:33;;;;;;;6.28;1.33;;;12.80;1.00;;;;;;5075292;28;20052;-67
2021/09/30 08:37:02;;;;;;;7.88;1.80;;;13.20;1.00;;;;;;5074256;28;20138;-67
2021/09/30 08:39:32;;;;;;;8.07;1.30;;;13.30;1.00;;;;;;5080800;28;20049;-67
2021/09/30 08:42:03;;;;;;;4.00;1.10;;;13.30;1.00;;;;;;5073339;28;20055;-68
2021/09/30 08:44:34;;;;;;;3.25;1.00;;;13.40;1.00;;;;;;5071804;28;20101;-68
2021/09/30 08:47:04;;;;;;;3.65;1.30;;;13.60;1.00;;;;;;5080459;28;20051;-67
2021/09/30 08:49:39;;;;;;;4.85;0.93;;;13.50;1.00;;;;;;5078208;28;20084;-68
2021/09/30 08:52:10;;;;;;;3.72;1.00;;;13.80;1.00;;;;;;5069368;28;20048;-69
2021/09/30 08:54:42;;;;;;;4.70;1.17;;;13.30;1.00;;;;;;5073932;28;20407;-69
2021/09/30 08:57:13;;;;;;;7.82;1.20;;;13.50;1.00;;;;;;5077134;28;20486;-69
2021/09/30 08:59:42;;;;;;;5.55;1.15;;;12.70;1.00;;;;;;5076870;28;20048;-68
2021/09/30 09:02:17;;;;;;;3.83;0.70;;;12.70;1.00;;;;;;5073671;28;20048;-68
2021/09/30 09:04:54;;;;;;;3.30;1.08;;;12.70;1.00;;;;;;5075758;28;20342;-68
2021/09/30 09:07:24;;;;;;;3.10;1.48;;;13.00;1.00;;;;;;5081002;28;20121;-70
2021/09/30 09:09:53;;;;;;;3.85;1.25;;;13.10;1.00;;;;;;5073282;28;20488;-68
2021/09/30 09:12:24;;;;;;;5.70;1.30;;;12.60;1.00;;;;;;5072908;28;20111;-69
2021/09/30 09:14:52;;;;;;;4.63;1.35;;;12.80;1.00;;;;;;5072866;28;20076;-69
2021/09/30 09:17:23;;;;;;;0.88;0.70;;;12.90;1.00;;;;;;5076184;28;20071;-69
2021/09/30 09:19:53;;;;;;;4.25;0.90;;;12.80;1.00;;;;;;5076802;28;20177;-69
2021/09/30 09:22:28;;;;;;;3.53;0.93;;;13.00;1.00;;;;;;5070830;28;20051;-69
2021/09/30 09:25:04;;;;;;;6.80;1.10;;;12.90;1.00;;;;;;5076270;28;20123;-69
2021/09/30 09:27:48;;;;;;;5.82;0.80;;;12.80;1.00;;;;;;5077421;28;20048;-68
2021/09/30 09:30:36;;;;;;;3.05;0.70;;;13.00;1.00;;;;;;5071801;28;20096;-69
2021/09/30 09:33:15;;;;;;;5.97;1.08;;;12.90;1.00;;;;;;5072221;28;20396;-69
2021/09/30 09:36:01;;;;;;;6.35;1.35;;;13.10;1.00;;;;;;5077750;28;20051;-69
2021/09/30 09:38:49;;;;;;;5.75;0.80;;;13.20;1.00;;;;;;5073759;28;20037;-69
2021/09/30 09:41:28;;;;;;;5.43;0.80;;;13.50;1.00;;;;;;5069307;28;21341;-70
2021/09/30 09:44:00;;;;;;;3.72;1.08;;;13.50;1.00;;;;;;5071703;28;20105;-68
2021/09/30 09:46:29;;;;;;;1.90;0.80;;;13.10;1.00;;;;;;5078055;28;20653;-69
2021/09/30 09:49:00;;;;;;;1.98;0.60;;;13.40;1.00;;;;;;5073676;28;20047;-69
2021/09/30 09:51:37;;;;;;;5.63;0.90;;;13.60;1.00;;;;;;5071096;28;20133;-69
2021/09/30 09:54:10;;;;;;;3.42;0.80;;;13.60;1.00;;;;;;5073867;28;20090;-68
2021/09/30 09:56:39;;;;;;;3.67;1.00;;;13.10;1.00;;;;;;5074901;28;20547;-70
2021/09/30 09:59:08;;;;;;;2.70;0.75;;;13.30;1.00;;;;;;5070825;28;20762;-69
2021/09/30 10:01:40;;;;;;;4.20;0.80;;;13.30;1.00;;;;;;5069258;28;20106;-69
2021/09/30 10:04:11;;;;;;;4.38;0.98;;;13.50;1.00;;;;;;5074426;28;20074;-69
2021/09/30 10:06:41;;;;;;;5.18;1.13;;;13.30;1.00;;;;;;5064622;28;20070;-68
2021/09/30 10:09:13;;;;;;;3.35;1.08;;;13.30;1.00;;;;;;5078066;28;20531;-70
2021/09/30 10:11:42;;;;;;;3.10;0.90;;;13.60;1.00;;;;;;5069282;28;20039;-71
2021/09/30 10:14:13;;;;;;;4.18;0.63;;;14.10;1.00;;;;;;5072046;28;20131;-70
2021/09/30 10:16:47;;;;;;;4.00;1.02;;;14.30;1.00;;;;;;5076400;28;20479;-69
2021/09/30 10:19:20;;;;;;;6.72;1.00;;;14.60;1.00;;;;;;5076587;28;20049;-74
2021/09/30 10:21:50;;;;;;;2.83;0.85;;;14.20;1.00;;;;;;5072916;28;20106;-69
2021/09/30 10:24:26;;;;;;;1.92;0.73;;;14.10;1.00;;;;;;5073525;28;20121;-68
2021/09/30 10:27:02;;;;;;;4.47;0.63;;;14.10;1.00;;;;;;5072501;28;20043;-70
2021/09/30 10:29:35;;;;;;;3.15;0.70;;;13.70;1.00;;;;;;5067681;28;20098;-68
2021/09/30 10:32:06;;;;;;;5.45;1.00;;;13.70;1.00;;;;;;5073184;28;20085;-69
2021/09/30 10:34:41;;;;;;;5.05;0.98;;;13.80;1.00;;;;;;5075323;28;20048;-68
2021/09/30 10:37:25;;;;;;;2.10;0.70;;;14.40;1.00;;;;;;5075136;28;20500;-69
2021/09/30 10:40:16;;;;;;;3.10;1.05;;;14.40;1.00;;;;;;5072902;28;20476;-69
2021/09/30 10:42:53;;;;;;;3.28;0.65;;;14.40;1.00;;;;;;5073286;28;20468;-69
2021/09/30 10:45:26;;;;;;;4.63;0.88;;;14.20;1.00;;;;;;5076324;28;20056;-69
2021/09/30 10:48:05;;;;;;;6.30;1.08;;;13.90;1.00;;;;;;5070052;28;20044;-69
2021/09/30 10:50:52;;;;;;;6.72;1.10;;;14.10;1.00;;;;;;5069059;28;20063;-69
2021/09/30 10:53:56;;;;;;;4.32;0.70;;;14.10;1.00;;;;;;5074139;28;20056;-69
2021/09/30 10:56:39;;;;;;;3.10;0.77;;;14.20;1.00;;;;;;5072951;28;20044;-69
2021/09/30 10:59:42;;;;;;;3.25;0.77;;;14.00;1.00;;;;;;5075040;28;20037;-69
2021/09/30 11:02:15;;;;;;;6.35;0.93;;;14.20;1.00;;;;;;5067822;28;20040;-69
2021/09/30 11:05:05;;;;;;;1.63;0.57;;;14.60;1.00;;;;;;5069282;28;20041;-69
2021/09/30 11:07:33;;;;;;;2.25;0.57;;;14.80;1.00;;;;;;5074556;28;20105;-70
2021/09/30 11:10:15;;;;;;;2.38;0.70;;;14.70;1.00;;;;;;5067556;28;20046;-70
2021/09/30 11:13:19;;;;;;;4.20;1.35;;;14.90;1.00;;;;;;5072297;28;20040;-70
2021/09/30 11:16:07;;;;;;;2.78;0.70;;;15.00;1.00;;;;;;5073679;28;20059;-70
2021/09/30 11:18:55;;;;;;;3.70;1.00;;;14.90;1.00;;;;;;5074010;28;20041;-69
2021/09/30 11:21:43;;;;;;;5.95;1.15;;;15.10;1.00;;;;;;5064376;28;20036;-70
2021/09/30 11:24:25;;;;;;;5.60;0.82;;;15.40;1.00;;;;;;5070747;28;20055;-69
2021/09/30 11:27:22;;;;;;;3.10;0.88;;;15.60;1.00;;;;;;5074447;28;20123;-71
2021/09/30 11:29:50;;;;;;;3.88;0.63;;;15.30;1.00;;;;;;5031355;28;21379;-71
2021/09/30 11:32:29;;;;;;;1.77;0.60;;;15.10;1.00;;;;;;5068766;28;20109;-68
2021/09/30 11:35:02;;;;;;;23.75;4.93;;;14.90;1.00;;;;;;5073861;28;20039;-68
2021/09/30 11:37:40;;;;;;;3.55;1.08;;;14.90;1.00;;;;;;5077394;28;20044;-69
2021/09/30 11:40:12;;;;;;;5.90;1.35;;;15.30;1.00;;;;;;5068359;28;20048;-69
2021/09/30 11:42:45;;;;;;;4.30;1.05;;;15.00;1.00;;;;;;5071925;28;20319;-69
2021/09/30 11:45:17;;;;;;;3.47;0.80;;;14.90;1.00;;;;;;5072087;28;20055;-69
2021/09/30 11:47:49;;;;;;;5.18;0.88;;;15.00;1.00;;;;;;5069883;28;20327;-69
2021/09/30 11:50:21;;;;;;;2.67;0.80;;;15.40;1.00;;;;;;5072328;28;20051;-69
2021/09/30 11:53:06;;;;;;;3.13;0.88;;;15.30;1.00;;;;;;5071968;28;20113;-69
2021/09/30 11:55:40;;;;;;;1.88;0.50;;;15.60;1.00;;;;;;5079253;28;20071;-70
2021/09/30 11:58:14;;;;;;;3.08;0.60;;;15.80;1.00;;;;;;5081314;28;20105;-70
2021/09/30 12:00:45;;;;;;;3.40;0.75;;;15.70;1.00;;;;;;5073529;28;20407;-69
2021/09/30 12:03:19;;;;;;;2.30;0.63;;;16.00;1.00;;;;;;5079355;28;20547;-69
2021/09/30 12:05:51;;;;;;;1.42;0.43;;;15.50;1.00;;;;;;5081446;28;20046;-69
2021/09/30 12:08:21;;;;;;;2.72;0.70;;;15.50;1.00;;;;;;5073290;28;20044;-69
2021/09/30 12:10:59;;;;;;;4.60;0.80;;;15.30;1.00;;;;;;5073326;28;20040;-69
2021/09/30 12:13:30;;;;;;;2.70;0.60;;;15.20;1.00;;;;;;5077952;28;20119;-70
2021/09/30 12:16:03;;;;;;;0.85;0.50;;;15.50;1.00;;;;;;5079471;28;20040;-69
2021/09/30 12:18:32;;;;;;;3.53;0.60;;;15.20;1.00;;;;;;5077325;28;20155;-69
2021/09/30 12:21:01;;;;;;;3.13;0.80;;;14.90;1.00;;;;;;5070393;28;20071;-69
2021/09/30 12:23:31;;;;;;;4.18;0.65;;;15.00;1.00;;;;;;5073178;28;20064;-69
2021/09/30 12:26:02;;;;;;;1.48;0.50;;;15.30;1.00;;;;;;5075370;28;20048;-69
2021/09/30 12:28:33;;;;;;;4.40;0.70;;;15.50;1.00;;;;;;5076520;28;20044;-70
2021/09/30 12:31:07;;;;;;;2.47;0.70;;;15.50;1.00;;;;;;5072796;28;20043;-69
2021/09/30 12:33:35;;;;;;;3.22;0.65;;;15.50;1.00;;;;;;5077537;28;20480;-69
2021/09/30 12:36:07;;;;;;;1.88;0.68;;;14.80;1.00;;;;;;5077361;28;20101;-69
2021/09/30 12:38:36;;;;;;;3.50;0.40;;;15.20;1.00;;;;;;5080588;28;20098;-68
2021/09/30 12:41:09;;;;;;;2.42;0.60;;;15.10;1.00;;;;;;5074787;28;20044;-68
2021/09/30 12:43:44;;;;;;;4.70;0.57;;;14.90;1.00;;;;;;5074006;28;20043;-68
2021/09/30 12:46:17;;;;;;;1.90;0.47;;;15.40;1.00;;;;;;5074359;28;20490;-70
2021/09/30 12:48:49;;;;;;;2.78;0.45;;;15.10;1.00;;;;;;5078322;28;20067;-69
2021/09/30 12:51:23;;;;;;;1.08;0.40;;;15.40;1.00;;;;;;5071615;28;20037;-70
2021/09/30 12:53:53;;;;;;;2.67;0.70;;;15.20;1.00;;;;;;5074946;28;20102;-69
2021/09/30 12:56:23;;;;;;;3.38;0.47;;;15.40;1.00;;;;;;5077885;28;20131;-69
2021/09/30 12:58:54;;;;;;;3.92;0.68;;;15.60;1.00;;;;;;5079130;28;20488;-68
2021/09/30 13:01:26;;;;;;;1.38;0.50;;;15.50;1.00;;;;;;5070162;28;20486;-70
2021/09/30 13:04:12;;;;;;;2.50;0.43;;;15.60;1.00;;;;;;5076396;28;20094;-70
2021/09/30 13:06:55;;;;;;;1.33;0.50;;;15.80;1.00;;;;;;5073832;28;20132;-68
2021/09/30 13:09:29;;;;;;;1.75;0.60;;;15.50;1.00;;;;;;5069692;28;20113;-68
2021/09/30 13:12:03;;;;;;;1.50;0.32;;;15.50;1.00;;;;;;5070800;28;20071;-70
2021/09/30 13:14:34;;;;;;;3.55;0.80;;;15.80;1.00;;;;;;5077818;28;20040;-69
2021/09/30 13:17:15;;;;;;;2.75;0.80;;;16.10;1.00;;;;;;5074735;28;20048;-69
2021/09/30 13:19:51;;;;;;;2.72;0.63;;;16.00;1.00;;;;;;5057336;28;20163;-68
2021/09/30 13:22:24;;;;;;;2.50;0.50;;;15.70;1.00;;;;;;5074178;28;20038;-69
2021/09/30 13:24:59;;;;;;;4.90;0.73;;;15.80;1.00;;;;;;5071032;28;20032;-70
2021/09/30 13:27:30;;;;;;;5.22;0.70;;;15.80;1.00;;;;;;5074045;28;20040;-70
2021/09/30 13:30:08;;;;;;;3.22;0.55;;;15.70;1.00;;;;;;5074973;28;20076;-70
2021/09/30 13:32:43;;;;;;;2.45;0.52;;;15.60;1.00;;;;;;5070455;28;20131;-70
2021/09/30 13:35:12;;;;;;;23.17;11.88;;;15.80;1.00;;;;;;5074905;28;20479;-69
2021/09/30 13:37:42;;;;;;;3.50;0.80;;;15.90;1.00;;;;;;5075696;28;20044;-69
2021/09/30 13:40:11;;;;;;;2.25;0.50;;;16.20;1.00;;;;;;5069383;28;20395;-69
2021/09/30 13:42:40;;;;;;;2.83;0.90;;;15.80;1.00;;;;;;5071862;28;20060;-68
2021/09/30 13:45:12;;;;;;;2.60;0.50;;;16.00;1.00;;;;;;5070678;28;20314;-70
2021/09/30 13:47:44;;;;;;;3.22;0.50;;;15.80;1.00;;;;;;5075038;28;20040;-71
2021/09/30 13:50:14;;;;;;;2.25;0.60;;;15.80;1.00;;;;;;5070895;28;20456;-71
2021/09/30 13:52:48;;;;;;;1.83;0.40;;;15.60;1.00;;;;;;5073313;28;20131;-67
2021/09/30 13:55:21;;;;;;;2.58;0.50;;;15.30;1.00;;;;;;5073936;28;20056;-70
2021/09/30 13:57:53;;;;;;;1.58;0.55;;;15.70;1.00;;;;;;5073551;28;20047;-70
2021/09/30 14:00:25;;;;;;;1.48;0.73;;;15.80;1.00;;;;;;5072655;28;20159;-70
2021/09/30 14:02:54;;;;;;;1.83;0.30;;;15.80;1.00;;;;;;5070440;28;20094;-70
2021/09/30 14:05:22;;;;;;;2.08;0.52;;;15.60;1.00;;;;;;5071805;28;20047;-70
2021/09/30 14:07:50;;;;;;;2.70;1.10;;;15.70;1.00;;;;;;5071953;28;20508;-69
2021/09/30 14:10:24;;;;;;;2.33;0.53;;;16.00;1.00;;;;;;5070614;28;20044;-68
2021/09/30 14:12:52;;;;;;;3.45;0.73;;;15.80;1.00;;;;;;5067920;28;20331;-69
2021/09/30 14:15:20;;;;;;;5.57;0.70;;;15.70;1.00;;;;;;5072354;28;20076;-69
2021/09/30 14:17:50;;;;;;;3.33;0.70;;;15.80;1.00;;;;;;5076145;28;20538;-68
2021/09/30 14:20:18;;;;;;;3.88;0.55;;;15.50;1.00;;;;;;5052545;28;20773;-69
2021/09/30 14:22:47;;;;;;;1.75;0.70;;;15.60;1.00;;;;;;5074076;28;20093;-68
2021/09/30 14:25:19;;;;;;;2.10;0.60;;;15.70;1.00;;;;;;5073183;28;20052;-70
2021/09/30 14:27:47;;;;;;;3.38;0.73;;;15.60;1.00;;;;;;5076337;28;20395;-69
2021/09/30 14:30:15;;;;;;;1.35;0.47;;;15.70;1.00;;;;;;5071489;28;20062;-69
2021/09/30 14:33:07;;;;;;;2.40;0.60;;;15.80;1.00;;;;;;5069285;28;20095;-69
2021/09/30 14:35:40;;;;;;;1.63;0.40;;;15.70;1.00;;;;;;5061157;28;20044;-69
2021/09/30 14:38:12;;;;;;;3.60;0.70;;;15.70;1.00;;;;;;5064413;28;20036;-70
2021/09/30 14:40:48;;;;;;;1.23;0.52;;;15.80;1.00;;;;;;5070019;28;20040;-69
2021/09/30 14:43:16;;;;;;;3.85;0.80;;;15.90;1.00;;;;;;5074599;28;20146;-70
2021/09/30 14:45:44;;;;;;;4.13;0.70;;;15.70;1.00;;;;;;5058188;28;20066;-69
2021/09/30 14:48:14;;;;;;;1.77;0.60;;;15.80;1.00;;;;;;5074172;28;20036;-68
2021/09/30 14:50:46;;;;;;;5.22;0.60;;;15.50;1.00;;;;;;5068365;28;20052;-68
2021/09/30 14:53:19;;;;;;;1.33;0.60;;;15.30;1.00;;;;;;5072819;28;20040;-71
2021/09/30 14:55:48;;;;;;;1.92;0.80;;;15.50;1.00;;;;;;5072381;28;20036;-69
2021/09/30 14:58:17;;;;;;;3.00;0.80;;;15.50;1.00;;;;;;5074152;28;20048;-69
2021/09/30 15:00:49;;;;;;;1.90;0.57;;;15.70;1.00;;;;;;5070236;28;20055;-69
2021/09/30 15:03:19;;;;;;;3.05;0.47;;;15.90;1.00;;;;;;5069952;28;20040;-69
2021/09/30 15:05:47;;;;;;;1.85;0.57;;;15.70;1.00;;;;;;5072378;28;20124;-68
2021/09/30 15:08:21;;;;;;;1.35;0.63;;;15.60;1.00;;;;;;5072303;28;20768;-69
2021/09/30 15:10:50;;;;;;;3.55;0.57;;;15.60;1.00;;;;;;5071821;28;20044;-69
2021/09/30 15:13:18;;;;;;;1.23;0.40;;;15.80;1.00;;;;;;5067366;28;20491;-70
2021/09/30 15:15:49;;;;;;;2.10;0.73;;;15.70;1.00;;;;;;5074621;28;20044;-69
2021/09/30 15:18:27;;;;;;;4.90;0.82;;;15.60;1.00;;;;;;5077988;28;20582;-69
2021/09/30 15:23:42;;;;;;;3.75;1.10;;;15.80;1.00;;;;;;5061566;28;20044;-70
2021/09/30 15:26:16;;;;;;;3.33;0.90;;;15.80;1.00;;;;;;5062486;28;20265;-70
2021/09/30 15:28:46;;;;;;;1.60;0.45;;;15.70;1.00;;;;;;5067560;28;20061;-70
2021/09/30 15:31:18;;;;;;;2.33;0.82;;;15.70;1.00;;;;;;5062506;28;20070;-70
2021/09/30 15:33:53;;;;;;;1.40;0.57;;;15.70;1.00;;;;;;5049746;28;20369;-71
2021/09/30 15:36:28;;;;;;;3.35;0.60;;;15.70;1.00;;;;;;5065054;28;20495;-69
2021/09/30 15:38:59;;;;;;;2.30;0.40;;;15.50;1.00;;;;;;5069613;28;20044;-70
2021/09/30 15:41:30;;;;;;;5.00;0.60;;;15.40;1.00;;;;;;5065670;28;20575;-70
2021/09/30 15:44:04;;;;;;;4.35;0.90;;;15.50;1.00;;;;;;5063152;28;20589;-70
2021/09/30 15:46:35;;;;;;;;;;;15.50;1.00;;;;;;5065179;28;20402;-70
2021/09/30 15:49:08;;;;;;;3.33;0.52;;;15.40;1.00;;;;;;5072745;28;19924;-69
2021/09/30 15:51:36;;;;;;;1.65;0.60;;;15.20;1.00;;;;;;5066027;28;20127;-70
2021/09/30 15:54:08;;;;;;;4.00;0.90;;;15.20;1.00;;;;;;5047499;28;20167;-70
2021/09/30 15:56:36;;;;;;;3.83;0.63;;;15.20;1.00;;;;;;5067376;28;20762;-70
2021/09/30 15:59:04;;;;;;;2.78;0.73;;;15.10;1.00;;;;;;5044200;28;20110;-71
2021/09/30 16:01:37;;;;;;;3.22;0.70;;;15.10;1.00;;;;;;5061192;28;20040;-71
2021/09/30 16:04:08;;;;;;;4.45;0.90;;;15.00;1.00;;;;;;5066134;28;20155;-71
2021/09/30 16:06:36;;;;;;;2.88;0.50;;;15.00;1.00;;;;;;5073994;28;20040;-70